Time;durP1;ratioP1;P1;durP2;ratioP2;P2;SDS_P1;SDS_P2;PMS_P1;PMS_P2;Temp;Humidity;BMP_temperature;BMP_pressure;BME280_temperature;BME280_humidity;BME280_pressure;Samples;Min_cycle;Max_cycle;Signal;HPM_P1;HPM_P2
2022/09/24 00:01:13;;;;;;;6.57;2.28;;;;;;;;;;5014843;28;20056;-65
2022/09/24 00:03:44;;;;;;;7.10;2.05;;;;;;;;;;5015087;28;20093;-65
2022/09/24 00:06:14;;;;;;;4.85;1.88;;;;;;;;;;5015145;28;20560;-65
2022/09/24 00:08:41;;;;;;;5.88;1.70;;;;;;;;;;5014899;28;20394;-64
2022/09/24 00:11:10;;;;;;;4.45;1.20;;;;;;;;;;5014757;28;20026;-64
2022/09/24 00:13:37;;;;;;;5.15;1.30;;;;;;;;;;5014497;28;20426;-64
2022/09/24 00:16:06;;;;;;;6.90;1.80;;;;;;;;;;5014611;28;20413;-65
2022/09/24 00:18:34;;;;;;;4.80;1.52;;;;;;;;;;5014871;28;20026;-64
2022/09/24 00:21:01;;;;;;;5.53;1.52;;;;;;;;;;5014538;28;20498;-64
2022/09/24 00:23:28;;;;;;;4.30;1.20;;;;;;;;;;5014380;28;20018;-65
2022/09/24 00:28:40;;;;;;;5.88;1.10;;;;;;;;;;5014436;28;20049;-65
2022/09/24 00:31:07;;;;;;;6.00;1.70;;;;;;;;;;5014494;28;20030;-65
2022/09/24 00:33:35;;;;;;;3.15;1.00;;;;;;;;;;5014403;28;20049;-65
2022/09/24 00:36:03;;;;;;;2.70;0.75;;;;;;;;;;5014292;28;20022;-65
2022/09/24 00:38:31;;;;;;;4.25;1.52;;;;;;;;;;5014361;28;20482;-65
2022/09/24 00:40:59;;;;;;;2.55;0.80;;;;;;;;;;5014411;28;20509;-65
2022/09/24 00:43:26;;;;;;;3.65;0.75;;;;;;;;;;5014425;28;20121;-65
2022/09/24 00:45:55;;;;;;;1.85;0.80;;;;;;;;;;5012871;28;20022;-65
2022/09/24 00:48:22;;;;;;;2.50;0.85;;;;;;;;;;5014047;28;20021;-65
2022/09/24 00:50:50;;;;;;;2.55;0.70;;;;;;;;;;5014227;28;20026;-65
2022/09/24 00:53:20;;;;;;;4.47;0.88;;;;;;;;;;5013921;28;20018;-65
2022/09/24 00:55:49;;;;;;;2.67;0.80;;;;;;;;;;5013953;28;20422;-65
2022/09/24 00:58:17;;;;;;;4.40;0.77;;;;;;;;;;5013826;28;20022;-66
2022/09/24 01:00:44;;;;;;;3.47;1.10;;;;;;;;;;5012542;28;20026;-66
2022/09/24 01:03:13;;;;;;;5.35;1.17;;;;;;;;;;5013794;28;20022;-66
2022/09/24 01:05:41;;;;;;;2.85;1.02;;;;;;;;;;5013696;28;20053;-66
2022/09/24 01:08:11;;;;;;;2.72;0.63;;;;;;;;;;5014113;28;20391;-66
2022/09/24 01:10:49;;;;;;;4.18;0.75;;;;;;;;;;5013862;28;20018;-66
2022/09/24 01:13:29;;;;;;;3.35;0.88;;;;;;;;;;5013766;28;20366;-66
2022/09/24 01:16:00;;;;;;;3.28;0.80;;;;;;;;;;5013928;28;20073;-66
2022/09/24 01:18:40;;;;;;;3.15;0.82;;;;;;;;;;5013544;28;20076;-66
2022/09/24 01:21:16;;;;;;;2.88;0.95;;;;;;;;;;5013614;28;20029;-67
2022/09/24 01:24:02;;;;;;;2.92;0.88;;;;;;;;;;5013565;28;20494;-67
2022/09/24 01:26:32;;;;;;;1.70;0.60;;;;;;;;;;5013557;28;20018;-64
2022/09/24 01:29:23;;;;;;;2.47;0.70;;;;;;;;;;5013444;28;20040;-65
2022/09/24 01:31:59;;;;;;;2.72;0.70;;;;;;;;;;5013519;28;20030;-65
2022/09/24 01:34:28;;;;;;;3.08;0.68;;;;;;;;;;5012065;28;20052;-65
2022/09/24 01:36:57;;;;;;;1.15;0.43;;;;;;;;;;5012054;28;20512;-65
2022/09/24 01:39:24;;;;;;;1.63;0.30;;;;;;;;;;5013202;28;20076;-66
2022/09/24 01:41:52;;;;;;;0.77;0.35;;;;;;;;;;5013223;28;20559;-65
2022/09/24 01:44:19;;;;;;;1.02;0.30;;;;;;;;;;5013234;28;20474;-66
2022/09/24 01:46:46;;;;;;;0.85;0.40;;;;;;;;;;5013286;28;20018;-65
2022/09/24 01:49:14;;;;;;;1.50;0.50;;;;;;;;;;5013145;28;20108;-66
2022/09/24 01:51:49;;;;;;;2.13;0.45;;;;;;;;;;5013114;28;20390;-65
2022/09/24 01:54:21;;;;;;;1.60;0.57;;;;;;;;;;5011820;28;20029;-65
2022/09/24 01:56:51;;;;;;;1.25;0.40;;;;;;;;;;5013190;28;20029;-66
2022/09/24 01:59:21;;;;;;;1.55;0.40;;;;;;;;;;5013119;28;20018;-66
2022/09/24 02:02:00;;;;;;;1.33;0.47;;;;;;;;;;5013151;28;20037;-66
2022/09/24 02:04:28;;;;;;;1.50;0.43;;;;;;;;;;5012934;28;20026;-66
2022/09/24 02:06:58;;;;;;;2.28;0.52;;;;;;;;;;5011453;28;20038;-66
2022/09/24 02:09:43;;;;;;;1.98;0.68;;;;;;;;;;5012901;28;20104;-66
2022/09/24 02:12:13;;;;;;;2.00;0.75;;;;;;;;;;5012891;28;20033;-66
2022/09/24 02:14:44;;;;;;;1.45;0.80;;;;;;;;;;5012827;28;20022;-65
2022/09/24 02:17:12;;;;;;;2.83;0.75;;;;;;;;;;5011760;28;20105;-65
2022/09/24 02:19:41;;;;;;;2.67;0.68;;;;;;;;;;5012746;28;20083;-66
2022/09/24 02:22:09;;;;;;;1.60;0.52;;;;;;;;;;5012863;28;20030;-65
2022/09/24 02:24:56;;;;;;;1.90;0.47;;;;;;;;;;5012752;28;20029;-65
2022/09/24 02:27:28;;;;;;;2.65;0.50;;;;;;;;;;5012503;28;20486;-65
2022/09/24 02:29:58;;;;;;;4.40;1.08;;;;;;;;;;5011342;28;20493;-65
2022/09/24 02:32:28;;;;;;;4.30;0.80;;;;;;;;;;5012699;28;20034;-66
2022/09/24 02:35:01;;;;;;;3.58;0.85;;;;;;;;;;5011321;28;20042;-66
2022/09/24 02:37:29;;;;;;;4.45;0.80;;;;;;;;;;5012751;28;20026;-65
2022/09/24 02:39:56;;;;;;;2.50;0.55;;;;;;;;;;5012330;28;20105;-65
2022/09/24 02:42:23;;;;;;;2.00;0.50;;;;;;;;;;5011369;28;20521;-66
2022/09/24 02:44:51;;;;;;;2.63;0.70;;;;;;;;;;5010499;28;20022;-66
2022/09/24 02:47:18;;;;;;;1.30;0.50;;;;;;;;;;5010781;28;20041;-66
2022/09/24 02:49:45;;;;;;;2.10;0.60;;;;;;;;;;5014067;28;20025;-66
2022/09/24 02:52:12;;;;;;;2.88;0.77;;;;;;;;;;5015832;28;20026;-68
2022/09/24 02:54:40;;;;;;;2.25;0.50;;;;;;;;;;5015909;28;20026;-66
2022/09/24 02:57:07;;;;;;;2.58;0.50;;;;;;;;;;5014832;28;20029;-65
2022/09/24 02:59:34;;;;;;;1.05;0.50;;;;;;;;;;5016313;28;20021;-64
2022/09/24 03:02:01;;;;;;;2.78;0.68;;;;;;;;;;5015977;28;20064;-66
2022/09/24 03:04:30;;;;;;;1.25;0.35;;;;;;;;;;5016093;28;20072;-66
2022/09/24 03:06:57;;;;;;;1.38;0.50;;;;;;;;;;5015922;28;20046;-66
2022/09/24 03:09:24;;;;;;;1.42;0.50;;;;;;;;;;5016302;28;20033;-65
2022/09/24 03:11:51;;;;;;;1.75;0.47;;;;;;;;;;5015806;28;20382;-66
2022/09/24 03:14:19;;;;;;;1.13;0.40;;;;;;;;;;5016031;28;20022;-65
2022/09/24 03:16:46;;;;;;;2.38;0.50;;;;;;;;;;5015869;28;20364;-65
2022/09/24 03:19:13;;;;;;;2.22;0.38;;;;;;;;;;5014545;28;20029;-66
2022/09/24 03:21:40;;;;;;;2.22;0.52;;;;;;;;;;5015632;28;20101;-65
2022/09/24 03:24:07;;;;;;;1.67;0.70;;;;;;;;;;5015853;28;20077;-66
2022/09/24 03:26:35;;;;;;;6.05;0.80;;;;;;;;;;5015551;28;20025;-66
2022/09/24 03:29:02;;;;;;;2.65;0.60;;;;;;;;;;5014301;28;20022;-65
2022/09/24 03:31:29;;;;;;;5.10;0.73;;;;;;;;;;5015812;28;20044;-66
2022/09/24 03:33:56;;;;;;;2.05;0.80;;;;;;;;;;5015641;28;20030;-66
2022/09/24 03:36:27;;;;;;;3.13;0.57;;;;;;;;;;5015384;28;20058;-66
2022/09/24 03:38:56;;;;;;;3.38;0.80;;;;;;;;;;5014237;28;20030;-66
2022/09/24 03:41:27;;;;;;;2.50;0.70;;;;;;;;;;5014218;28;20050;-66
2022/09/24 03:43:53;;;;;;;;;;;;;;;;;;5016091;28;20026;-66
2022/09/24 03:46:23;;;;;;;3.03;0.80;;;;;;;;;;5015445;28;19905;-64
2022/09/24 03:48:51;;;;;;;1.13;0.55;;;;;;;;;;5015230;28;20105;-65
2022/09/24 03:51:18;;;;;;;2.92;0.60;;;;;;;;;;5015230;28;20022;-66
2022/09/24 03:53:46;;;;;;;2.95;0.70;;;;;;;;;;5015118;28;20033;-65
2022/09/24 03:56:13;;;;;;;1.73;0.45;;;;;;;;;;5015120;28;20022;-66
2022/09/24 03:58:41;;;;;;;4.50;0.80;;;;;;;;;;5015302;28;20030;-65
2022/09/24 04:01:09;;;;;;;3.20;0.80;;;;;;;;;;5013924;28;20484;-66
2022/09/24 04:03:36;;;;;;;3.10;0.88;;;;;;;;;;5013449;28;20032;-66
2022/09/24 04:06:04;;;;;;;3.67;1.00;;;;;;;;;;5014955;28;20088;-66
2022/09/24 04:08:31;;;;;;;3.22;1.10;;;;;;;;;;5015050;28;20017;-66
2022/09/24 04:10:58;;;;;;;4.32;1.10;;;;;;;;;;5013716;28;20022;-66
2022/09/24 04:13:25;;;;;;;3.75;1.10;;;;;;;;;;5014642;28;20081;-66
2022/09/24 04:15:53;;;;;;;3.65;1.05;;;;;;;;;;5014741;28;20022;-66
2022/09/24 04:18:21;;;;;;;6.03;1.20;;;;;;;;;;5014832;28;20022;-65
2022/09/24 04:20:48;;;;;;;7.25;1.40;;;;;;;;;;5013359;28;20371;-65
2022/09/24 04:23:15;;;;;;;3.10;0.90;;;;;;;;;;5014480;28;20433;-65
2022/09/24 04:25:45;;;;;;;3.50;0.88;;;;;;;;;;5014526;28;20045;-66
2022/09/24 04:28:12;;;;;;;4.50;1.20;;;;;;;;;;5014422;28;20053;-65
2022/09/24 04:30:40;;;;;;;4.70;1.70;;;;;;;;;;5014734;28;20116;-65
2022/09/24 04:33:07;;;;;;;3.88;1.10;;;;;;;;;;5014679;28;20336;-66
2022/09/24 04:35:35;;;;;;;3.17;0.90;;;;;;;;;;5014470;28;20397;-65
2022/09/24 04:38:03;;;;;;;3.20;1.17;;;;;;;;;;5014261;28;20032;-65
2022/09/24 04:40:30;;;;;;;3.35;0.80;;;;;;;;;;5013057;28;20517;-65
2022/09/24 04:42:58;;;;;;;5.50;1.08;;;;;;;;;;5014217;28;20026;-66
2022/09/24 04:45:25;;;;;;;4.32;0.90;;;;;;;;;;5014040;28;20422;-66
2022/09/24 04:47:56;;;;;;;3.55;1.02;;;;;;;;;;5014214;28;20018;-66
2022/09/24 04:50:24;;;;;;;3.88;1.20;;;;;;;;;;5014145;28;20029;-65
2022/09/24 04:52:51;;;;;;;5.45;1.02;;;;;;;;;;5014060;28;20482;-65
2022/09/24 04:55:19;;;;;;;4.35;0.88;;;;;;;;;;5013972;28;20026;-65
2022/09/24 04:57:47;;;;;;;4.90;1.10;;;;;;;;;;5013984;28;20018;-65
2022/09/24 05:00:16;;;;;;;2.72;0.80;;;;;;;;;;5013872;28;20565;-65
2022/09/24 05:02:43;;;;;;;3.67;1.15;;;;;;;;;;5013863;28;20029;-65
2022/09/24 05:05:11;;;;;;;5.60;0.88;;;;;;;;;;5013944;28;20083;-65
2022/09/24 05:07:38;;;;;;;8.02;1.02;;;;;;;;;;5014220;28;20050;-65
2022/09/24 05:10:06;;;;;;;4.55;1.10;;;;;;;;;;5012393;28;20514;-66
2022/09/24 05:12:35;;;;;;;3.60;0.93;;;;;;;;;;5013323;28;20076;-66
2022/09/24 05:15:03;;;;;;;1.80;0.80;;;;;;;;;;5013686;28;20022;-65
2022/09/24 05:17:31;;;;;;;4.68;0.90;;;;;;;;;;5013681;28;20093;-65
2022/09/24 05:20:00;;;;;;;2.13;1.00;;;;;;;;;;5013530;28;20034;-66
2022/09/24 05:22:27;;;;;;;5.78;0.95;;;;;;;;;;5014099;28;20044;-65
2022/09/24 05:24:54;;;;;;;4.20;0.95;;;;;;;;;;5012303;28;20026;-66
2022/09/24 05:27:23;;;;;;;3.30;1.00;;;;;;;;;;5013636;28;20025;-65
2022/09/24 05:29:50;;;;;;;2.83;0.77;;;;;;;;;;5013528;28;20044;-65
2022/09/24 05:32:18;;;;;;;4.22;0.88;;;;;;;;;;5013474;28;20051;-66
2022/09/24 05:34:46;;;;;;;2.85;0.90;;;;;;;;;;5013426;28;20026;-66
2022/09/24 05:37:14;;;;;;;4.65;1.00;;;;;;;;;;5013442;28;20367;-66
2022/09/24 05:39:41;;;;;;;5.20;1.23;;;;;;;;;;5013334;28;20030;-65
2022/09/24 05:42:12;;;;;;;2.10;1.13;;;;;;;;;;5013490;28;20033;-66
2022/09/24 05:44:40;;;;;;;2.78;1.00;;;;;;;;;;5013526;28;20024;-66
2022/09/24 05:47:07;;;;;;;5.03;1.08;;;;;;;;;;5013538;28;20025;-66
2022/09/24 05:49:34;;;;;;;2.47;1.00;;;;;;;;;;5013511;28;20033;-65
2022/09/24 05:52:01;;;;;;;3.63;1.67;;;;;;;;;;5013161;28;20026;-66
2022/09/24 05:54:28;;;;;;;2.75;1.00;;;;;;;;;;5013272;28;20026;-65
2022/09/24 05:56:56;;;;;;;2.58;0.95;;;;;;;;;;5013382;28;20018;-65
2022/09/24 05:59:23;;;;;;;4.40;1.60;;;;;;;;;;5013316;28;20462;-65
2022/09/24 06:01:50;;;;;;;5.00;1.10;;;;;;;;;;5013103;28;20490;-65
2022/09/24 06:04:18;;;;;;;4.97;1.00;;;;;;;;;;5013190;28;20022;-65
2022/09/24 06:06:45;;;;;;;2.95;0.95;;;;;;;;;;5011568;28;20046;-65
2022/09/24 06:09:12;;;;;;;3.83;1.30;;;;;;;;;;5013093;28;20022;-65
2022/09/24 06:11:39;;;;;;;4.00;1.35;;;;;;;;;;5013035;28;20448;-65
2022/09/24 06:14:07;;;;;;;3.90;1.17;;;;;;;;;;5013097;28;20029;-65
2022/09/24 06:16:34;;;;;;;2.92;0.80;;;;;;;;;;5011674;28;20048;-65
2022/09/24 06:19:01;;;;;;;4.18;1.00;;;;;;;;;;5013233;28;20030;-65
2022/09/24 06:21:28;;;;;;;1.63;0.75;;;;;;;;;;5013090;28;20041;-65
2022/09/24 06:23:55;;;;;;;3.08;0.85;;;;;;;;;;5013795;28;20013;-65
2022/09/24 06:26:25;;;;;;;2.72;0.90;;;;;;;;;;5016828;28;20018;-65
2022/09/24 06:28:52;;;;;;;2.58;0.90;;;;;;;;;;5016806;28;20105;-65
2022/09/24 06:31:19;;;;;;;4.53;1.02;;;;;;;;;;5015299;28;20387;-65
2022/09/24 06:33:46;;;;;;;4.13;1.10;;;;;;;;;;5016686;28;20074;-66
2022/09/24 06:36:13;;;;;;;4.22;1.30;;;;;;;;;;5016753;28;20101;-65
2022/09/24 06:38:40;;;;;;;4.00;1.00;;;;;;;;;;5016713;28;20026;-65
2022/09/24 06:41:08;;;;;;;5.10;1.05;;;;;;;;;;5016508;28;20068;-65
2022/09/24 06:43:35;;;;;;;4.60;1.33;;;;;;;;;;5016468;28;20033;-66
2022/09/24 06:46:03;;;;;;;5.70;1.20;;;;;;;;;;5015231;28;20022;-66
2022/09/24 06:48:31;;;;;;;3.53;1.23;;;;;;;;;;5016448;28;20101;-64
2022/09/24 06:50:58;;;;;;;5.25;1.50;;;;;;;;;;5015046;28;20026;-65
2022/09/24 06:53:25;;;;;;;4.20;1.65;;;;;;;;;;5014922;28;20022;-65
2022/09/24 06:55:57;;;;;;;5.43;1.55;;;;;;;;;;5014864;28;20022;-66
2022/09/24 06:58:24;;;;;;;6.57;1.35;;;;;;;;;;5015135;28;20104;-65
2022/09/24 07:00:52;;;;;;;5.90;1.90;;;;;;;;;;5014689;28;20080;-65
2022/09/24 07:03:21;;;;;;;4.82;1.83;;;;;;;;;;5015910;28;20466;-65
2022/09/24 07:05:48;;;;;;;5.60;2.33;;;;;;;;;;5015956;28;20434;-65
2022/09/24 07:08:16;;;;;;;4.93;2.20;;;;;;;;;;5016357;28;20026;-64
2022/09/24 07:10:51;;;;;;;4.50;2.05;;;;;;;;;;5016375;28;20479;-64
2022/09/24 07:13:20;;;;;;;5.40;2.17;;;;;;;;;;5016042;28;20352;-64
2022/09/24 07:15:48;;;;;;;3.42;1.70;;;;;;;;;;5016082;28;20041;-65
2022/09/24 07:18:15;;;;;;;5.25;1.80;;;;;;;;;;5015911;28;20024;-65
2022/09/24 07:20:43;;;;;;;5.85;1.50;;;;;;;;;;5015844;28;20022;-65
2022/09/24 07:23:11;;;;;;;6.35;1.88;;;;;;;;;;5016018;28;20030;-65
2022/09/24 07:25:39;;;;;;;5.78;1.90;;;;;;;;;;5015890;28;20018;-64
2022/09/24 07:28:10;;;;;;;4.60;2.10;;;;;;;;;;5015714;28;20028;-64
2022/09/24 07:30:37;;;;;;;5.47;2.05;;;;;;;;;;5015762;28;20026;-64
2022/09/24 07:33:06;;;;;;;9.88;2.85;;;;;;;;;;5015512;28;20026;-64
2022/09/24 07:35:33;;;;;;;6.95;2.60;;;;;;;;;;5015686;28;20153;-65
2022/09/24 07:38:05;;;;;;;6.30;2.10;;;;;;;;;;5014312;28;20041;-65
2022/09/24 07:40:32;;;;;;;5.20;2.30;;;;;;;;;;5015529;28;20105;-65
2022/09/24 07:43:00;;;;;;;7.30;2.70;;;;;;;;;;5015482;28;20022;-65
2022/09/24 07:45:28;;;;;;;6.80;2.65;;;;;;;;;;5014114;28;20598;-65
2022/09/24 07:48:02;;;;;;;5.22;2.55;;;;;;;;;;5014039;28;20474;-65
2022/09/24 07:50:31;;;;;;;10.00;3.15;;;;;;;;;;5015142;28;20018;-65
2022/09/24 07:52:59;;;;;;;9.00;3.20;;;;;;;;;;5015271;28;20026;-65
2022/09/24 07:55:26;;;;;;;9.13;3.10;;;;;;;;;;5015180;28;20072;-65
2022/09/24 07:57:54;;;;;;;10.00;3.70;;;;;;;;;;5015030;28;20105;-65
2022/09/24 08:00:22;;;;;;;10.45;3.30;;;;;;;;;;5015103;28;20097;-65
2022/09/24 08:02:52;;;;;;;8.13;4.15;;;;;;;;;;5015029;28;20030;-65
2022/09/24 08:05:19;;;;;;;8.77;3.23;;;;;;;;;;5013759;28;20102;-65
2022/09/24 08:07:57;;;;;;;10.05;3.58;;;;;;;;;;5013779;28;20277;-65
2022/09/24 08:10:25;;;;;;;8.57;4.00;;;;;;;;;;5014965;28;20076;-65
2022/09/24 08:12:52;;;;;;;6.72;3.22;;;;;;;;;;5015002;28;20030;-65
2022/09/24 08:15:21;;;;;;;5.50;2.92;;;;;;;;;;5014769;28;20029;-65
2022/09/24 08:17:48;;;;;;;7.85;3.60;;;;;;;;;;5014910;28;20104;-65
2022/09/24 08:20:15;;;;;;;4.93;3.20;;;;;;;;;;5014868;28;20072;-65
2022/09/24 08:22:43;;;;;;;6.25;3.30;;;;;;;;;;5014699;28;20125;-65
2022/09/24 08:25:10;;;;;;;10.63;4.28;;;;;;;;;;5014887;28;20026;-65
2022/09/24 08:27:37;;;;;;;6.57;3.60;;;;;;;;;;5015063;28;20030;-65
2022/09/24 08:30:05;;;;;;;7.45;3.70;;;;;;;;;;5015036;28;20021;-64
2022/09/24 08:32:32;;;;;;;6.03;3.30;;;;;;;;;;5013366;28;20494;-64
2022/09/24 08:35:00;;;;;;;8.70;3.47;;;;;;;;;;5013308;28;20037;-64
2022/09/24 08:37:30;;;;;;;11.60;4.18;;;;;;;;;;5014372;28;20028;-64
2022/09/24 08:39:57;;;;;;;11.68;5.13;;;;;;;;;;5014566;28;20029;-65
2022/09/24 08:42:48;;;;;;;11.15;6.43;;;;;;;;;;5013055;28;20026;-65
2022/09/24 08:48:10;;;;;;;12.82;6.65;;;;;;;;;;5014013;28;20513;-65
2022/09/24 08:50:40;;;;;;;10.98;5.95;;;;;;;;;;5014373;28;20021;-65
2022/09/24 08:53:07;;;;;;;13.07;7.32;;;;;;;;;;5012892;28;20025;-65
2022/09/24 08:55:37;;;;;;;9.95;6.75;;;;;;;;;;5012946;28;20034;-65
2022/09/24 08:58:22;;;;;;;10.20;6.37;;;;;;;;;;5014084;28;20390;-64
2022/09/24 09:00:52;;;;;;;13.40;6.50;;;;;;;;;;5014033;28;20022;-64
2022/09/24 09:03:58;;;;;;;10.57;6.60;;;;;;;;;;5012482;28;20402;-62
2022/09/24 09:06:37;;;;;;;11.38;6.72;;;;;;;;;;4992017;28;20419;-63
2022/09/24 09:09:09;;;;;;;15.32;8.15;;;;;;;;;;4992302;28;20390;-64
2022/09/24 09:11:38;;;;;;;10.23;5.55;;;;;;;;;;5005408;28;20042;-61
2022/09/24 09:14:25;;;;;;;13.93;5.82;;;;;;;;;;5013932;28;20080;-62
2022/09/24 09:17:18;;;;;;;10.32;5.05;;;;;;;;;;5002790;28;20056;-63
2022/09/24 09:19:48;;;;;;;10.20;4.35;;;;;;;;;;5012544;28;20060;-62
2022/09/24 09:22:15;;;;;;;;;;;;;;;;;;5014180;28;20026;-63
2022/09/24 09:24:45;;;;;;;9.98;3.97;;;;;;;;;;5013724;28;19913;-63
2022/09/24 09:27:13;;;;;;;8.05;4.45;;;;;;;;;;5013944;28;20369;-63
2022/09/24 09:29:45;;;;;;;10.50;4.95;;;;;;;;;;5013531;28;20030;-63
2022/09/24 09:32:29;;;;;;;9.82;4.65;;;;;;;;;;5013528;28;20026;-63
2022/09/24 09:35:14;;;;;;;10.02;5.43;;;;;;;;;;5013646;28;20136;-63
2022/09/24 09:37:51;;;;;;;11.10;5.47;;;;;;;;;;5013307;28;20065;-63
2022/09/24 09:40:28;;;;;;;9.25;6.22;;;;;;;;;;5013765;28;20022;-64
2022/09/24 09:43:02;;;;;;;10.50;5.50;;;;;;;;;;5013218;28;20079;-64
2022/09/24 09:45:38;;;;;;;10.38;5.93;;;;;;;;;;5013566;28;20111;-65
2022/09/24 09:48:05;;;;;;;9.55;6.30;;;;;;;;;;5013470;28;20029;-64
2022/09/24 09:50:44;;;;;;;11.10;6.40;;;;;;;;;;5012118;28;20436;-65
2022/09/24 09:53:22;;;;;;;13.02;6.70;;;;;;;;;;5011865;28;20113;-64
2022/09/24 09:56:08;;;;;;;10.90;7.45;;;;;;;;;;5013512;28;20037;-63
2022/09/24 09:58:36;;;;;;;14.50;7.60;;;;;;;;;;5012571;28;20030;-63
2022/09/24 10:01:06;;;;;;;10.45;7.20;;;;;;;;;;5013123;28;20105;-63
2022/09/24 10:03:54;;;;;;;12.70;6.65;;;;;;;;;;5013115;28;20475;-64
2022/09/24 10:06:24;;;;;;;14.10;6.85;;;;;;;;;;5013000;28;20049;-65
2022/09/24 10:08:51;;;;;;;12.82;7.78;;;;;;;;;;5013156;28;20378;-65
2022/09/24 10:11:19;;;;;;;12.73;8.68;;;;;;;;;;5011895;28;20029;-64
2022/09/24 10:13:46;;;;;;;16.95;9.77;;;;;;;;;;5013043;28;20026;-64
2022/09/24 10:16:16;;;;;;;9.80;8.10;;;;;;;;;;5013106;28;20390;-64
2022/09/24 10:18:43;;;;;;;14.27;8.63;;;;;;;;;;5013251;28;20084;-68
2022/09/24 10:21:12;;;;;;;11.00;7.90;;;;;;;;;;5013338;28;20026;-64
2022/09/24 10:23:41;;;;;;;15.27;8.27;;;;;;;;;;5013041;28;20390;-65
2022/09/24 10:26:08;;;;;;;14.90;8.25;;;;;;;;;;5013122;28;20022;-65
2022/09/24 10:31:26;;;;;;;10.55;7.47;;;;;;;;;;5013277;28;20088;-64
2022/09/24 10:33:55;;;;;;;12.30;8.35;;;;;;;;;;5012976;28;20018;-64
2022/09/24 10:36:23;;;;;;;14.23;7.60;;;;;;;;;;5012887;28;20110;-64
2022/09/24 10:39:01;;;;;;;11.73;7.75;;;;;;;;;;5013205;28;20104;-64
2022/09/24 10:41:29;;;;;;;10.73;7.40;;;;;;;;;;5013070;28;20026;-64
2022/09/24 10:43:57;;;;;;;12.00;7.32;;;;;;;;;;5012871;28;20076;-63
2022/09/24 10:46:24;;;;;;;10.55;7.82;;;;;;;;;;5012965;28;20101;-64
2022/09/24 10:49:00;;;;;;;11.10;6.80;;;;;;;;;;5012787;28;20029;-65
2022/09/24 10:51:47;;;;;;;11.07;7.20;;;;;;;;;;5013127;28;20018;-64
2022/09/24 10:54:36;;;;;;;15.25;7.50;;;;;;;;;;5012962;28;20018;-64
2022/09/24 10:57:12;;;;;;;12.13;8.60;;;;;;;;;;5012857;28;20483;-64
2022/09/24 10:59:48;;;;;;;14.18;8.30;;;;;;;;;;5013004;28;20026;-63
2022/09/24 11:02:42;;;;;;;17.55;8.82;;;;;;;;;;5011305;28;20022;-63
2022/09/24 11:05:32;;;;;;;12.20;9.20;;;;;;;;;;5012708;28;20525;-64
2022/09/24 11:08:13;;;;;;;14.05;8.52;;;;;;;;;;5009727;28;20125;-63
2022/09/24 11:10:52;;;;;;;14.07;8.98;;;;;;;;;;5014753;28;20102;-64
2022/09/24 11:13:39;;;;;;;13.88;9.40;;;;;;;;;;5016209;28;20037;-64
2022/09/24 11:16:22;;;;;;;16.63;10.02;;;;;;;;;;5016352;28;20034;-64
2022/09/24 11:18:57;;;;;;;15.50;9.48;;;;;;;;;;5016378;28;20030;-65
2022/09/24 11:21:36;;;;;;;15.60;9.77;;;;;;;;;;5016086;28;20053;-64
2022/09/24 11:24:22;;;;;;;13.25;9.57;;;;;;;;;;5016029;28;20025;-64
2022/09/24 11:27:05;;;;;;;13.60;9.30;;;;;;;;;;5016007;28;20547;-64
2022/09/24 11:29:50;;;;;;;11.07;9.25;;;;;;;;;;5015845;28;20026;-63
2022/09/24 11:32:20;;;;;;;12.60;9.02;;;;;;;;;;5015822;28;20029;-63
2022/09/24 11:34:59;;;;;;;13.07;9.52;;;;;;;;;;5016116;28;20029;-63
2022/09/24 11:37:38;;;;;;;12.20;9.20;;;;;;;;;;5015616;28;20390;-64
2022/09/24 11:40:23;;;;;;;12.35;8.20;;;;;;;;;;5014378;28;20026;-64
2022/09/24 11:42:50;;;;;;;15.18;9.18;;;;;;;;;;5014311;28;20397;-64
2022/09/24 11:45:29;;;;;;;11.80;7.55;;;;;;;;;;5015627;28;20020;-63
2022/09/24 11:47:56;;;;;;;11.40;8.20;;;;;;;;;;5015605;28;20113;-64
2022/09/24 11:50:30;;;;;;;11.55;7.78;;;;;;;;;;5015519;28;20117;-64
2022/09/24 11:53:07;;;;;;;13.40;8.35;;;;;;;;;;5015640;28;20021;-64
2022/09/24 11:55:37;;;;;;;12.80;8.55;;;;;;;;;;5015594;28;20106;-64
2022/09/24 11:58:11;;;;;;;11.55;8.60;;;;;;;;;;5015370;28;20033;-64
2022/09/24 12:00:40;;;;;;;16.50;9.85;;;;;;;;;;5015252;28;20375;-64
2022/09/24 12:03:25;;;;;;;13.05;10.35;;;;;;;;;;5015258;28;20482;-64
2022/09/24 12:05:59;;;;;;;13.98;8.85;;;;;;;;;;5015127;28;20069;-64
2022/09/24 12:08:29;;;;;;;16.08;9.07;;;;;;;;;;5015367;28;20425;-65
2022/09/24 12:11:09;;;;;;;14.13;9.35;;;;;;;;;;5015667;28;20072;-64
2022/09/24 12:13:37;;;;;;;13.15;9.68;;;;;;;;;;5015048;28;20474;-65
2022/09/24 12:16:16;;;;;;;15.30;10.88;;;;;;;;;;5013694;28;20045;-65
2022/09/24 12:19:01;;;;;;;14.02;10.63;;;;;;;;;;5015125;28;20382;-65
2022/09/24 12:21:28;;;;;;;13.25;10.32;;;;;;;;;;5013838;28;20076;-64
2022/09/24 12:23:59;;;;;;;14.38;10.48;;;;;;;;;;5015084;28;20356;-64
2022/09/24 12:26:27;;;;;;;13.85;10.77;;;;;;;;;;5014957;28;20072;-64
2022/09/24 12:34:39;;;;;;;14.32;9.65;;;;;;;;;;5013461;28;20034;-63
2022/09/24 12:37:10;;;;;;;12.10;9.30;;;;;;;;;;5014561;28;20385;-63
2022/09/24 12:39:51;;;;;;;14.43;8.73;;;;;;;;;;5014824;28;20026;-64
2022/09/24 12:42:20;;;;;;;8.85;7.93;;;;;;;;;;5014589;28;20021;-63
2022/09/24 12:44:53;;;;;;;10.63;6.93;;;;;;;;;;5014418;28;20483;-63
2022/09/24 12:47:25;;;;;;;12.40;9.65;;;;;;;;;;5014470;28;20033;-63
2022/09/24 12:49:58;;;;;;;11.38;8.65;;;;;;;;;;5014222;28;20022;-63
2022/09/24 12:52:27;;;;;;;11.63;9.15;;;;;;;;;;5013049;28;20025;-64
2022/09/24 12:54:58;;;;;;;14.68;9.57;;;;;;;;;;5014265;28;20022;-64
2022/09/24 12:57:27;;;;;;;11.88;9.40;;;;;;;;;;5014541;28;20018;-64
2022/09/24 12:59:57;;;;;;;13.02;9.60;;;;;;;;;;5014151;28;20101;-64
2022/09/24 13:02:30;;;;;;;13.30;9.30;;;;;;;;;;5013993;28;20101;-63
2022/09/24 13:05:03;;;;;;;13.07;9.45;;;;;;;;;;5014298;28;20025;-64
2022/09/24 13:07:37;;;;;;;11.35;8.90;;;;;;;;;;5012667;28;20145;-64
2022/09/24 13:10:16;;;;;;;15.75;9.80;;;;;;;;;;5014219;28;20014;-64
2022/09/24 13:12:45;;;;;;;13.73;9.45;;;;;;;;;;5013899;28;20050;-64
2022/09/24 13:15:18;;;;;;;11.20;9.45;;;;;;;;;;5013957;28;20018;-64
2022/09/24 13:17:46;;;;;;;13.73;9.30;;;;;;;;;;5013761;28;20436;-64
2022/09/24 13:20:25;;;;;;;12.15;9.93;;;;;;;;;;5013809;28;20061;-64
2022/09/24 13:22:57;;;;;;;12.90;9.50;;;;;;;;;;5013765;28;20026;-64
2022/09/24 13:25:25;;;;;;;11.00;8.75;;;;;;;;;;5013694;28;20088;-63
2022/09/24 13:28:02;;;;;;;13.93;9.05;;;;;;;;;;5013692;28;20076;-64
2022/09/24 13:30:29;;;;;;;14.07;10.13;;;;;;;;;;5013553;28;20033;-64
2022/09/24 13:33:02;;;;;;;13.50;9.25;;;;;;;;;;5013594;28;20029;-64
2022/09/24 13:35:35;;;;;;;14.10;8.70;;;;;;;;;;5013606;28;20037;-64
2022/09/24 13:38:07;;;;;;;12.55;9.05;;;;;;;;;;5013521;28;20045;-64
2022/09/24 13:40:37;;;;;;;13.48;9.10;;;;;;;;;;5013446;28;20052;-64
2022/09/24 13:43:04;;;;;;;12.75;8.93;;;;;;;;;;5012149;28;20030;-64
2022/09/24 13:45:33;;;;;;;11.00;9.25;;;;;;;;;;5013406;28;20512;-63
2022/09/24 13:48:15;;;;;;;13.10;8.38;;;;;;;;;;5013428;28;20022;-63
2022/09/24 13:50:48;;;;;;;11.90;9.23;;;;;;;;;;5013612;28;20026;-64
2022/09/24 13:53:21;;;;;;;9.77;8.75;;;;;;;;;;5013426;28;20044;-64
2022/09/24 13:55:51;;;;;;;13.57;8.77;;;;;;;;;;5013301;28;20030;-64
2022/09/24 13:58:37;;;;;;;14.07;9.40;;;;;;;;;;5013315;28;20026;-64
2022/09/24 14:01:06;;;;;;;11.10;8.68;;;;;;;;;;5013118;28;20037;-64
2022/09/24 14:03:34;;;;;;;12.27;8.95;;;;;;;;;;5013176;28;20060;-64
2022/09/24 14:06:02;;;;;;;13.70;9.80;;;;;;;;;;5013066;28;20048;-64
2022/09/24 14:08:29;;;;;;;13.35;10.02;;;;;;;;;;5013195;28;20033;-64
2022/09/24 14:11:08;;;;;;;16.08;9.90;;;;;;;;;;5013119;28;20483;-64
2022/09/24 14:13:44;;;;;;;15.38;10.27;;;;;;;;;;5013121;28;20022;-64
2022/09/24 14:16:19;;;;;;;13.88;10.18;;;;;;;;;;5013111;28;20046;-64
2022/09/24 14:18:46;;;;;;;14.13;9.55;;;;;;;;;;5011855;28;20422;-64
2022/09/24 14:21:30;;;;;;;11.93;9.32;;;;;;;;;;5013233;28;20033;-64
2022/09/24 14:24:02;;;;;;;12.52;9.43;;;;;;;;;;5013061;28;20014;-64
2022/09/24 14:26:32;;;;;;;12.88;9.15;;;;;;;;;;5012982;28;20049;-65
2022/09/24 14:29:00;;;;;;;10.85;8.43;;;;;;;;;;5013057;28;20105;-64
2022/09/24 14:31:28;;;;;;;12.38;9.25;;;;;;;;;;5013080;28;20018;-65
2022/09/24 14:33:55;;;;;;;12.25;8.60;;;;;;;;;;5012974;28;20414;-64
2022/09/24 14:36:27;;;;;;;10.50;8.23;;;;;;;;;;5011761;28;20022;-63
2022/09/24 14:39:03;;;;;;;13.90;8.98;;;;;;;;;;5013044;28;20069;-63
2022/09/24 14:41:32;;;;;;;9.45;8.13;;;;;;;;;;5012957;28;20033;-63
2022/09/24 14:44:02;;;;;;;14.50;8.30;;;;;;;;;;5012834;28;20022;-63
2022/09/24 14:46:47;;;;;;;9.63;7.53;;;;;;;;;;5016513;28;20029;-64
2022/09/24 14:49:22;;;;;;;12.80;8.23;;;;;;;;;;5016645;28;20018;-64
2022/09/24 14:51:53;;;;;;;10.63;7.93;;;;;;;;;;5016488;28;20033;-63
2022/09/24 14:54:32;;;;;;;9.27;6.85;;;;;;;;;;5016422;28;20025;-63
2022/09/24 14:57:12;;;;;;;11.02;7.93;;;;;;;;;;5016457;28;20096;-64
2022/09/24 14:59:40;;;;;;;9.95;7.13;;;;;;;;;;5016581;28;20132;-64
2022/09/24 15:02:19;;;;;;;9.85;6.57;;;;;;;;;;5016257;28;20022;-63
2022/09/24 15:04:58;;;;;;;9.30;6.43;;;;;;;;;;5016334;28;20057;-63
2022/09/24 15:07:26;;;;;;;8.20;6.20;;;;;;;;;;5014844;28;20049;-64
2022/09/24 15:09:58;;;;;;;7.15;5.82;;;;;;;;;;5016163;28;20029;-64
2022/09/24 15:12:29;;;;;;;8.57;6.00;;;;;;;;;;5014899;28;20026;-63
2022/09/24 15:14:58;;;;;;;6.28;5.30;;;;;;;;;;5016141;28;20417;-63